createdAt,value
2018-09-17T00:00:53.086Z,96.60
2018-09-17T00:03:21.167Z,96.60
2018-09-17T00:05:49.254Z,96.50
2018-09-17T00:08:17.336Z,96.60
2018-09-17T00:10:45.435Z,96.70
2018-09-17T00:13:13.608Z,96.70
2018-09-17T00:15:41.734Z,96.50
2018-09-17T00:18:09.878Z,96.80
2018-09-17T00:20:37.979Z,97.10
2018-09-17T00:23:06.156Z,97.20
2018-09-17T00:25:34.246Z,97.10
2018-09-17T00:28:02.425Z,97.10
2018-09-17T00:30:30.518Z,97.20
2018-09-17T00:32:58.706Z,97.20
2018-09-17T00:35:26.877Z,97.10
2018-09-17T00:37:54.957Z,97.10
2018-09-17T00:40:23.070Z,97.10
2018-09-17T00:42:51.229Z,97.30
2018-09-17T00:45:19.357Z,97.40
2018-09-17T00:47:47.501Z,97.50
2018-09-17T00:50:15.593Z,97.70
2018-09-17T00:52:43.820Z,98.00
2018-09-17T00:55:11.961Z,98.40
2018-09-17T00:57:40.122Z,98.10
2018-09-17T01:00:08.238Z,98.10
2018-09-17T01:02:36.336Z,98.00
2018-09-17T01:05:04.721Z,98.00
2018-09-17T01:07:32.838Z,98.00
2018-09-17T01:10:00.986Z,98.10
2018-09-17T01:12:29.079Z,98.10
2018-09-17T01:14:57.153Z,98.10
2018-09-17T01:17:25.241Z,98.10
2018-09-17T01:19:53.321Z,98.10
2018-09-17T01:22:21.419Z,98.30
2018-09-17T01:24:49.590Z,98.30
2018-09-17T01:27:17.681Z,98.20
2018-09-17T01:29:45.853Z,98.30
2018-09-17T01:32:13.954Z,98.30
2018-09-17T01:34:42.066Z,98.40
2018-09-17T01:37:10.245Z,98.50
2018-09-17T01:39:38.420Z,98.80
2018-09-17T01:42:06.616Z,98.60
2018-09-17T01:44:34.805Z,98.50
2018-09-17T01:47:02.987Z,98.50
2018-09-17T01:49:31.165Z,98.80
2018-09-17T01:51:59.253Z,98.80
2018-09-17T01:54:27.437Z,98.80
2018-09-17T01:56:55.638Z,98.90
2018-09-17T01:59:23.810Z,99.20
2018-09-17T02:01:52.045Z,99.10
2018-09-17T02:04:20.191Z,99.20
2018-09-17T02:06:48.390Z,99.20
2018-09-17T02:09:16.566Z,99.20
2018-09-17T02:11:44.758Z,99.10
2018-09-17T02:14:12.939Z,99.20
2018-09-17T02:16:41.133Z,99.20
2018-09-17T02:19:09.319Z,99.10
2018-09-17T02:21:38.430Z,99.10
2018-09-17T02:24:06.735Z,99.10
2018-09-17T02:26:34.905Z,99.10
2018-09-17T02:29:03.082Z,99.10
2018-09-17T02:31:32.296Z,99.10
2018-09-17T02:34:00.390Z,99.10
2018-09-17T02:36:28.477Z,99.20
2018-09-17T02:38:56.653Z,99.10
2018-09-17T02:41:24.834Z,99.10
2018-09-17T02:43:53.038Z,99.40
2018-09-17T02:46:21.223Z,99.30
2018-09-17T02:48:49.431Z,99.50
2018-09-17T02:51:17.706Z,99.60
2018-09-17T02:53:45.889Z,99.50
2018-09-17T02:56:14.078Z,99.50
2018-09-17T02:58:42.253Z,99.70
2018-09-17T03:01:11.346Z,99.70
2018-09-17T03:03:39.442Z,99.80
2018-09-17T03:06:07.647Z,99.90
2018-09-17T03:08:35.883Z,99.90
2018-09-17T03:11:04.006Z,99.90
2018-09-17T03:13:32.294Z,99.90
2018-09-17T03:16:00.385Z,99.90
2018-09-17T03:19:00.753Z,99.90
2018-09-17T03:21:29.927Z,99.90
2018-09-17T03:23:58.123Z,99.90
2018-09-17T03:26:26.305Z,99.90
2018-09-17T03:28:54.498Z,99.90
2018-09-17T03:31:22.676Z,99.90
2018-09-17T03:33:50.882Z,99.90
2018-09-17T03:36:19.073Z,99.90
2018-09-17T03:38:48.186Z,99.90
2018-09-17T03:41:17.292Z,99.90
2018-09-17T03:43:47.938Z,99.90
2018-09-17T03:46:16.181Z,99.90
2018-09-17T03:48:44.217Z,99.90
2018-09-17T03:51:12.901Z,99.90
2018-09-17T03:53:41.509Z,99.90
2018-09-17T03:56:09.660Z,99.90
2018-09-17T03:58:37.862Z,99.90
2018-09-17T04:01:07.381Z,99.90
2018-09-17T04:03:35.794Z,99.90
2018-09-17T04:06:03.942Z,99.90
2018-09-17T04:08:33.125Z,99.90
2018-09-17T04:11:01.260Z,99.90
2018-09-17T04:13:29.438Z,99.90
2018-09-17T04:15:57.631Z,99.90
2018-09-17T04:18:25.830Z,99.90
2018-09-17T04:20:53.989Z,99.90
2018-09-17T04:23:27.698Z,99.90
2018-09-17T04:25:55.897Z,99.90
2018-09-17T04:28:24.095Z,99.90
2018-09-17T04:30:52.277Z,99.90
2018-09-17T04:33:20.454Z,99.90
2018-09-17T04:35:48.654Z,99.90
2018-09-17T04:38:16.825Z,99.90
2018-09-17T04:40:45.042Z,99.90
2018-09-17T04:43:13.207Z,99.90
2018-09-17T04:45:41.409Z,99.90
2018-09-17T04:48:09.588Z,99.90
2018-09-17T04:50:37.779Z,99.90
2018-09-17T04:53:05.970Z,99.90
2018-09-17T04:55:34.165Z,99.90
2018-09-17T04:58:02.333Z,99.90
2018-09-17T05:00:30.426Z,99.90
2018-09-17T05:02:58.718Z,99.90
2018-09-17T05:05:26.899Z,99.90
2018-09-17T05:07:55.077Z,99.90
2018-09-17T05:10:23.193Z,99.90
2018-09-17T05:12:51.397Z,99.90
2018-09-17T05:15:19.546Z,99.90
2018-09-17T05:17:47.733Z,99.90
2018-09-17T05:20:15.910Z,99.90
2018-09-17T05:22:44.095Z,99.90
2018-09-17T05:25:12.369Z,99.90
2018-09-17T05:27:40.462Z,99.90
2018-09-17T05:30:08.657Z,99.90
2018-09-17T05:32:36.850Z,99.90
2018-09-17T05:35:05.358Z,99.90
2018-09-17T05:37:33.429Z,99.90
2018-09-17T05:40:01.626Z,99.90
2018-09-17T05:42:29.822Z,99.90
2018-09-17T05:44:57.979Z,99.90
2018-09-17T05:47:26.178Z,99.90
2018-09-17T05:49:54.538Z,99.90
2018-09-17T05:52:22.645Z,99.90
2018-09-17T05:54:50.953Z,99.90
2018-09-17T05:57:19.254Z,99.90
2018-09-17T05:59:47.410Z,99.90
2018-09-17T06:02:15.605Z,99.90
2018-09-17T06:04:44.005Z,99.90
2018-09-17T06:07:12.195Z,99.90
2018-09-17T06:09:40.274Z,99.90
2018-09-17T06:12:08.463Z,99.90
2018-09-17T06:14:36.646Z,99.90
2018-09-17T06:17:04.840Z,99.90
2018-09-17T06:19:33.017Z,99.90
2018-09-17T06:22:01.198Z,99.90
2018-09-17T06:24:29.442Z,99.90
2018-09-17T06:26:57.583Z,99.90
2018-09-17T06:29:25.682Z,99.90
2018-09-17T06:31:53.850Z,99.90
2018-09-17T06:34:22.018Z,99.90
2018-09-17T06:36:50.221Z,99.90
2018-09-17T06:39:18.410Z,99.90
2018-09-17T06:41:46.606Z,99.90
2018-09-17T06:44:14.795Z,99.90
2018-09-17T06:46:42.922Z,99.90
2018-09-17T06:49:11.055Z,99.90
2018-09-17T06:51:39.195Z,99.90
2018-09-17T06:54:07.282Z,99.90
2018-09-17T06:56:35.406Z,99.90
2018-09-17T06:59:03.498Z,99.90
2018-09-17T07:01:31.665Z,99.90
2018-09-17T07:03:59.771Z,99.90
2018-09-17T07:06:27.949Z,99.90
2018-09-17T07:08:56.146Z,99.90
2018-09-17T07:11:24.322Z,99.90
2018-09-17T07:13:52.506Z,99.90
2018-09-17T07:16:20.598Z,99.90
2018-09-17T07:18:48.805Z,99.90
2018-09-17T07:21:16.889Z,99.90
2018-09-17T07:23:45.050Z,99.90
2018-09-17T07:26:13.137Z,99.90
2018-09-17T07:28:41.332Z,99.90
2018-09-17T07:31:10.432Z,99.90
2018-09-17T07:33:38.619Z,99.90
2018-09-17T07:36:06.840Z,99.90
2018-09-17T07:38:35.029Z,99.90
2018-09-17T07:41:03.437Z,99.90
2018-09-17T07:43:31.518Z,99.90
2018-09-17T07:45:59.650Z,99.90
2018-09-17T07:48:27.845Z,99.90
2018-09-17T07:50:56.026Z,99.90
2018-09-17T07:53:24.220Z,99.90
2018-09-17T07:55:52.431Z,99.90
2018-09-17T07:58:20.602Z,99.90
2018-09-17T08:00:48.789Z,99.90
2018-09-17T08:03:16.992Z,99.40
2018-09-17T08:05:45.197Z,99.60
2018-09-17T08:08:13.352Z,99.90
2018-09-17T08:10:41.522Z,99.90
2018-09-17T08:13:09.714Z,99.60
2018-09-17T08:15:37.894Z,98.80
2018-09-17T08:18:06.081Z,99.10
2018-09-17T08:20:34.287Z,99.90
2018-09-17T08:23:02.453Z,99.50
2018-09-17T08:25:30.693Z,98.80
2018-09-17T08:27:58.725Z,98.30
2018-09-17T08:30:26.922Z,97.80
2018-09-17T08:32:55.114Z,97.80
2018-09-17T08:35:23.296Z,98.00
2018-09-17T08:37:51.477Z,98.10
2018-09-17T08:40:19.682Z,97.70
2018-09-17T08:42:47.786Z,98.60
2018-09-17T08:45:15.951Z,98.60
2018-09-17T08:47:44.046Z,98.30
2018-09-17T08:50:12.138Z,98.10
2018-09-17T08:52:40.447Z,98.00
2018-09-17T08:55:08.629Z,97.20
2018-09-17T08:57:45.113Z,97.10
2018-09-17T09:00:19.430Z,97.90
2018-09-17T09:02:50.471Z,97.60
2018-09-17T09:05:23.925Z,96.80
2018-09-17T09:07:52.986Z,96.40
2018-09-17T09:10:26.689Z,96.30
2018-09-17T09:13:01.150Z,96.20
2018-09-17T09:15:35.646Z,96.20
2018-09-17T09:18:04.890Z,96.20
2018-09-17T09:20:33.282Z,95.80
2018-09-17T09:23:01.486Z,96.20
2018-09-17T09:25:29.638Z,95.70
2018-09-17T09:27:57.938Z,95.60
2018-09-17T09:30:26.115Z,94.80
2018-09-17T09:32:54.330Z,95.40
2018-09-17T09:35:22.818Z,93.10
2018-09-17T09:37:51.173Z,92.80
2018-09-17T09:40:19.389Z,93.40
2018-09-17T09:42:47.559Z,91.90
2018-09-17T09:45:16.582Z,92.80
2018-09-17T09:47:45.503Z,92.50
2018-09-17T09:50:13.694Z,91.30
2018-09-17T09:52:42.005Z,91.60
2018-09-17T09:55:10.137Z,91.30
2018-09-17T09:57:38.345Z,91.10
2018-09-17T10:00:12.554Z,90.60
2018-09-17T10:02:46.249Z,91.10
2018-09-17T10:05:14.534Z,88.30
2018-09-17T10:07:42.758Z,88.10
2018-09-17T10:10:16.378Z,89.30
2018-09-17T10:12:50.066Z,87.80
2018-09-17T10:15:23.407Z,86.60
2018-09-17T10:17:57.167Z,85.90
2018-09-17T10:20:25.260Z,85.80
2018-09-17T10:22:53.370Z,82.40
2018-09-17T10:25:21.545Z,80.10
2018-09-17T10:27:49.758Z,80.30
2018-09-17T10:30:17.919Z,80.50
2018-09-17T10:32:46.118Z,77.20
2018-09-17T10:35:14.292Z,78.50
2018-09-17T10:37:42.489Z,77.70
2018-09-17T10:40:10.692Z,76.10
2018-09-17T10:42:38.861Z,81.00
2018-09-17T10:45:07.107Z,80.60
2018-09-17T10:47:35.242Z,76.30
2018-09-17T10:50:03.462Z,78.20
2018-09-17T10:52:31.691Z,75.20
2018-09-17T10:54:59.794Z,72.80
2018-09-17T10:57:27.994Z,72.50
2018-09-17T10:59:56.165Z,74.30
2018-09-17T11:02:24.378Z,72.00
2018-09-17T11:04:52.546Z,71.10
2018-09-17T11:07:20.729Z,69.50
2018-09-17T11:09:48.937Z,69.50
2018-09-17T11:12:17.233Z,65.00
2018-09-17T11:14:45.396Z,64.40
2018-09-17T11:17:13.627Z,65.10
2018-09-17T11:19:41.678Z,63.40
2018-09-17T11:22:09.850Z,65.50
2018-09-17T11:24:38.042Z,67.20
2018-09-17T11:27:06.349Z,63.10
2018-09-17T11:29:34.521Z,62.80
2018-09-17T11:32:02.690Z,60.40
2018-09-17T11:34:30.897Z,60.00
2018-09-17T11:36:59.073Z,58.50
2018-09-17T11:39:27.262Z,58.20
2018-09-17T11:41:55.467Z,58.50
2018-09-17T11:44:23.646Z,55.60
2018-09-17T11:46:51.819Z,57.30
2018-09-17T11:49:20.006Z,55.00
2018-09-17T11:51:48.187Z,55.00
2018-09-17T11:54:16.393Z,55.30
2018-09-17T11:56:44.565Z,53.20
2018-09-17T11:59:12.764Z,54.30
2018-09-17T12:01:46.551Z,51.50
2018-09-17T12:04:16.426Z,50.90
2018-09-17T12:06:49.873Z,51.90
2018-09-17T12:09:17.999Z,52.50
2018-09-17T12:11:46.182Z,48.80
2018-09-17T12:14:14.363Z,48.80
2018-09-17T12:16:42.554Z,50.50
2018-09-17T12:19:10.741Z,49.70
2018-09-17T12:21:38.938Z,49.20
2018-09-17T12:24:07.142Z,48.10
2018-09-17T12:26:35.299Z,46.80
2018-09-17T12:29:03.838Z,47.40
2018-09-17T12:31:32.002Z,46.40
2018-09-17T12:34:00.333Z,46.90
2018-09-17T12:36:28.359Z,46.30
2018-09-17T12:38:56.538Z,46.70
2018-09-17T12:41:24.749Z,46.20
2018-09-17T12:43:52.918Z,44.10
2018-09-17T12:46:21.101Z,44.40
2018-09-17T12:48:49.282Z,43.40
2018-09-17T12:51:17.497Z,43.40
2018-09-17T12:53:45.674Z,42.30
2018-09-17T12:56:13.890Z,41.20
2018-09-17T12:58:42.030Z,42.60
2018-09-17T13:01:10.233Z,40.60
2018-09-17T13:03:38.410Z,40.10
2018-09-17T13:06:06.621Z,39.90
2018-09-17T13:08:34.865Z,41.00
2018-09-17T13:11:02.973Z,41.00
2018-09-17T13:13:31.154Z,40.80
2018-09-17T13:15:59.349Z,40.50
2018-09-17T13:18:27.538Z,39.90
2018-09-17T13:20:56.565Z,40.10
2018-09-17T13:23:24.790Z,40.00
2018-09-17T13:25:52.934Z,40.20
2018-09-17T13:28:21.095Z,40.70
2018-09-17T13:30:49.194Z,41.10
2018-09-17T13:33:17.396Z,41.70
2018-09-17T13:35:45.570Z,41.20
2018-09-17T13:38:13.765Z,41.50
2018-09-17T13:40:41.990Z,40.70
2018-09-17T13:43:10.128Z,41.00
2018-09-17T13:45:38.680Z,40.30
2018-09-17T13:48:06.866Z,39.60
2018-09-17T13:50:35.017Z,41.00
2018-09-17T13:53:03.175Z,41.10
2018-09-17T13:55:31.394Z,40.20
2018-09-17T13:58:00.349Z,40.60
2018-09-17T14:00:28.677Z,41.00
2018-09-17T14:02:56.855Z,41.40
2018-09-17T14:05:25.049Z,41.30
2018-09-17T14:07:53.236Z,41.10
2018-09-17T14:10:21.594Z,39.10
2018-09-17T14:12:49.709Z,42.80
2018-09-17T14:15:17.875Z,42.20
2018-09-17T14:17:46.067Z,41.80
2018-09-17T14:20:14.334Z,42.80
2018-09-17T14:22:42.458Z,41.70
2018-09-17T14:25:10.619Z,41.70
2018-09-17T14:27:39.034Z,40.50
2018-09-17T14:30:07.166Z,40.10
2018-09-17T14:32:41.011Z,40.80
2018-09-17T14:35:09.349Z,41.50
2018-09-17T14:37:37.514Z,37.50
2018-09-17T14:40:05.876Z,39.70
2018-09-17T14:42:34.342Z,39.30
2018-09-17T14:45:02.795Z,38.80
2018-09-17T14:47:30.973Z,36.90
2018-09-17T14:49:59.266Z,37.50
2018-09-17T14:52:27.560Z,37.10
2018-09-17T14:54:55.617Z,38.70
2018-09-17T14:57:23.810Z,38.60
2018-09-17T14:59:52.021Z,38.50
2018-09-17T15:02:20.137Z,38.90
2018-09-17T15:04:48.297Z,38.60
2018-09-17T15:07:16.470Z,38.30
2018-09-17T15:09:44.694Z,39.20
2018-09-17T15:12:12.984Z,38.60
2018-09-17T15:14:41.202Z,40.00
2018-09-17T15:17:09.331Z,39.50
2018-09-17T15:19:37.536Z,41.00
2018-09-17T15:22:05.734Z,38.70
2018-09-17T15:24:33.957Z,40.80
2018-09-17T15:27:02.066Z,39.70
2018-09-17T15:29:30.266Z,40.80
2018-09-17T15:31:58.501Z,40.80
2018-09-17T15:34:26.802Z,39.70
2018-09-17T15:36:54.910Z,42.20
2018-09-17T15:39:23.090Z,40.70
2018-09-17T15:41:51.190Z,42.10
2018-09-17T15:44:19.500Z,43.20
2018-09-17T15:46:47.610Z,42.90
2018-09-17T15:49:15.871Z,43.50
2018-09-17T15:51:44.093Z,41.80
2018-09-17T15:54:12.565Z,43.50
2018-09-17T15:56:40.760Z,41.50
2018-09-17T15:59:08.913Z,44.90
2018-09-17T16:01:37.105Z,45.70
2018-09-17T16:04:05.322Z,45.60
2018-09-17T16:06:33.522Z,45.30
2018-09-17T16:09:01.658Z,45.10
2018-09-17T16:11:29.829Z,44.60
2018-09-17T16:13:58.028Z,46.00
2018-09-17T16:16:26.224Z,47.90
2018-09-17T16:18:54.402Z,48.10
2018-09-17T16:21:22.589Z,47.30
2018-09-17T16:23:50.689Z,47.50
2018-09-17T16:26:18.847Z,50.20
2018-09-17T16:28:47.062Z,49.00
2018-09-17T16:31:15.278Z,49.40
2018-09-17T16:33:43.427Z,51.30
2018-09-17T16:36:11.601Z,51.60
2018-09-17T16:38:39.785Z,52.00
2018-09-17T16:41:07.974Z,52.40
2018-09-17T16:43:36.261Z,52.70
2018-09-17T16:46:04.474Z,53.30
2018-09-17T16:48:32.634Z,54.00
2018-09-17T16:51:00.853Z,54.40
2018-09-17T16:53:29.182Z,55.10
2018-09-17T16:55:57.106Z,55.60
2018-09-17T16:58:25.313Z,56.20
2018-09-17T17:00:53.485Z,56.80
2018-09-17T17:03:21.653Z,57.20
2018-09-17T17:05:49.905Z,57.60
2018-09-17T17:08:18.031Z,57.90
2018-09-17T17:10:46.225Z,58.30
2018-09-17T17:13:14.418Z,58.80
2018-09-17T17:15:47.093Z,59.30
2018-09-17T17:18:16.378Z,59.60
2018-09-17T17:20:44.734Z,59.80
2018-09-17T17:23:12.894Z,59.90
2018-09-17T17:25:41.097Z,59.70
2018-09-17T17:28:09.385Z,60.30
2018-09-17T17:30:37.621Z,60.80
2018-09-17T17:33:05.791Z,61.80
2018-09-17T17:35:34.154Z,62.80
2018-09-17T17:38:02.357Z,64.00
2018-09-17T17:40:30.740Z,64.50
2018-09-17T17:42:58.684Z,64.60
2018-09-17T17:45:26.926Z,64.40
2018-09-17T17:47:55.126Z,64.30
2018-09-17T17:50:23.262Z,64.20
2018-09-17T17:52:51.442Z,64.50
2018-09-17T17:55:19.626Z,65.10
2018-09-17T17:57:47.840Z,66.10
2018-09-17T18:00:15.911Z,67.00
2018-09-17T18:02:44.097Z,66.90
2018-09-17T18:05:12.260Z,66.90
2018-09-17T18:07:40.479Z,67.30
2018-09-17T18:10:08.650Z,67.60
2018-09-17T18:12:37.162Z,68.20
2018-09-17T18:15:05.332Z,68.90
2018-09-17T18:17:33.550Z,69.30
2018-09-17T18:20:01.700Z,69.50
2018-09-17T18:22:29.900Z,69.80
2018-09-17T18:24:58.070Z,70.10
2018-09-17T18:27:26.406Z,70.70
2018-09-17T18:29:54.433Z,71.60
2018-09-17T18:32:22.670Z,72.50
2018-09-17T18:34:50.825Z,72.80
2018-09-17T18:37:19.016Z,73.20
2018-09-17T18:39:47.325Z,73.40
2018-09-17T18:42:15.275Z,74.00
2018-09-17T18:44:43.453Z,75.20
2018-09-17T18:47:11.698Z,75.90
2018-09-17T18:49:39.959Z,76.50
2018-09-17T18:52:08.125Z,76.90
2018-09-17T18:54:36.217Z,77.60
2018-09-17T18:57:04.494Z,78.70
2018-09-17T18:59:32.629Z,79.80
2018-09-17T19:02:00.766Z,81.00
2018-09-17T19:04:28.953Z,82.20
2018-09-17T19:06:57.138Z,82.60
2018-09-17T19:09:30.910Z,82.90
2018-09-17T19:11:59.085Z,83.80
2018-09-17T19:14:32.736Z,84.30
2018-09-17T19:17:05.253Z,85.10
2018-09-17T19:19:33.537Z,87.10
2018-09-17T19:22:07.431Z,87.70
2018-09-17T19:24:35.347Z,88.90
2018-09-17T19:27:03.524Z,89.70
2018-09-17T19:29:31.710Z,90.20
2018-09-17T19:31:59.817Z,90.60
2018-09-17T19:34:27.994Z,91.10
2018-09-17T19:37:00.406Z,91.30
2018-09-17T19:39:33.914Z,91.80
2018-09-17T19:42:02.083Z,92.00
2018-09-17T19:44:30.262Z,92.30
2018-09-17T19:46:58.448Z,92.40
2018-09-17T19:49:26.571Z,92.60
2018-09-17T19:52:00.085Z,92.60
2018-09-17T19:54:28.559Z,92.80
2018-09-17T19:56:56.646Z,93.00
2018-09-17T19:59:30.331Z,92.90
2018-09-17T20:01:58.512Z,92.80
2018-09-17T20:04:32.261Z,92.80
2018-09-17T20:07:00.417Z,93.10
2018-09-17T20:09:28.622Z,93.10
2018-09-17T20:11:56.789Z,93.30
2018-09-17T20:14:25.003Z,93.50
2018-09-17T20:16:53.181Z,93.80
2018-09-17T20:19:21.357Z,94.00
2018-09-17T20:21:49.546Z,94.20
2018-09-17T20:24:17.739Z,94.40
2018-09-17T20:26:45.930Z,94.50
2018-09-17T20:29:14.107Z,94.70
2018-09-17T20:31:42.379Z,94.90
2018-09-17T20:34:10.491Z,95.00
2018-09-17T20:36:38.667Z,95.10
2018-09-17T20:39:08.269Z,95.20
2018-09-17T20:41:36.373Z,95.10
2018-09-17T20:44:04.566Z,95.00
2018-09-17T20:46:32.757Z,94.90
2018-09-17T20:49:00.953Z,95.00
2018-09-17T20:51:29.125Z,94.90
2018-09-17T20:53:57.311Z,94.90
2018-09-17T20:56:25.495Z,94.60
2018-09-17T20:58:53.689Z,94.40
2018-09-17T21:01:21.867Z,94.30
2018-09-17T21:03:49.957Z,94.30
2018-09-17T21:06:18.142Z,94.40
2018-09-17T21:08:46.326Z,94.40
2018-09-17T21:11:14.510Z,94.50
2018-09-17T21:13:42.720Z,94.80
2018-09-17T21:16:11.003Z,95.40
2018-09-17T21:18:39.154Z,95.60
2018-09-17T21:21:08.410Z,95.70
2018-09-17T21:23:36.590Z,95.60
2018-09-17T21:26:04.758Z,95.80
2018-09-17T21:28:32.947Z,95.80
2018-09-17T21:31:01.177Z,95.80
2018-09-17T21:33:29.321Z,96.00
2018-09-17T21:35:57.506Z,96.30
2018-09-17T21:38:25.699Z,96.30
2018-09-17T21:40:53.988Z,96.20
2018-09-17T21:43:22.211Z,96.50
2018-09-17T21:45:50.295Z,96.60
2018-09-17T21:48:18.438Z,96.70
2018-09-17T21:50:46.630Z,96.50
2018-09-17T21:53:14.822Z,96.60
2018-09-17T21:55:42.938Z,96.60
2018-09-17T21:58:11.109Z,96.50
2018-09-17T22:00:44.750Z,96.50
2018-09-17T22:03:12.887Z,96.40
2018-09-17T22:05:41.090Z,96.50
2018-09-17T22:08:09.259Z,96.30
2018-09-17T22:10:37.487Z,96.30
2018-09-17T22:13:05.814Z,96.70
2018-09-17T22:15:33.935Z,96.80
2018-09-17T22:18:02.147Z,97.00
2018-09-17T22:20:30.316Z,97.10
2018-09-17T22:22:58.481Z,97.10
2018-09-17T22:25:26.678Z,97.10
2018-09-17T22:27:54.869Z,97.20
2018-09-17T22:30:23.053Z,97.30
2018-09-17T22:32:51.225Z,97.50
2018-09-17T22:35:19.472Z,97.50
2018-09-17T22:37:47.646Z,97.60
2018-09-17T22:40:15.813Z,97.60
2018-09-17T22:42:44.033Z,97.60
2018-09-17T22:45:12.167Z,97.60
2018-09-17T22:47:40.357Z,97.50
2018-09-17T22:50:08.589Z,97.40
2018-09-17T22:52:36.854Z,97.30
2018-09-17T22:55:05.058Z,97.30
2018-09-17T22:57:33.244Z,97.40
2018-09-17T23:00:01.386Z,97.50
2018-09-17T23:02:29.591Z,97.60
2018-09-17T23:04:57.769Z,97.70
2018-09-17T23:07:25.965Z,97.60
2018-09-17T23:09:54.146Z,97.60
2018-09-17T23:12:22.325Z,97.60
2018-09-17T23:14:50.510Z,97.50
2018-09-17T23:17:18.701Z,97.60
2018-09-17T23:19:46.897Z,97.50
2018-09-17T23:22:15.098Z,97.50
2018-09-17T23:24:43.262Z,97.70
2018-09-17T23:27:11.449Z,97.80
2018-09-17T23:29:39.637Z,98.00
2018-09-17T23:32:07.828Z,98.10
2018-09-17T23:34:36.011Z,98.10
2018-09-17T23:37:04.202Z,98.00
2018-09-17T23:39:32.483Z,98.10
2018-09-17T23:42:00.573Z,98.00
2018-09-17T23:44:28.674Z,98.00
2018-09-17T23:46:56.841Z,98.10
2018-09-17T23:49:25.017Z,98.10
2018-09-17T23:51:53.214Z,98.20
2018-09-17T23:54:21.390Z,98.10
2018-09-17T23:56:49.597Z,98.00
2018-09-17T23:59:17.774Z,97.90
